createdAt,value
2023-04-08T00:01:08.175Z,5.23
2023-04-08T00:03:39.793Z,5.17
2023-04-08T00:06:11.765Z,5.19
2023-04-08T00:08:43.220Z,5.18
2023-04-08T00:11:14.994Z,5.18
2023-04-08T00:13:46.421Z,5.19
2023-04-08T00:16:18.397Z,5.16
2023-04-08T00:18:50.138Z,5.21
2023-04-08T00:21:22.083Z,5.19
2023-04-08T00:23:53.545Z,5.25
2023-04-08T00:26:25.331Z,5.29
2023-04-08T00:28:57.150Z,5.29
2023-04-08T00:31:28.793Z,5.34
2023-04-08T00:34:00.734Z,5.33
2023-04-08T00:36:32.162Z,5.23
2023-04-08T00:39:03.851Z,5.22
2023-04-08T00:41:35.321Z,5.23
2023-04-08T00:44:07.095Z,5.23
2023-04-08T00:46:38.608Z,5.25
2023-04-08T00:49:10.367Z,5.30
2023-04-08T00:51:41.840Z,5.28
2023-04-08T00:54:13.647Z,5.36
2023-04-08T00:56:45.171Z,5.37
2023-04-08T00:59:16.650Z,5.34
2023-04-08T01:01:48.246Z,5.33
2023-04-08T01:04:20.293Z,5.29
2023-04-08T01:06:51.806Z,5.28
2023-04-08T01:09:23.725Z,5.30
2023-04-08T01:11:55.446Z,5.31
2023-04-08T01:14:27.295Z,5.36
2023-04-08T01:16:58.762Z,5.36
2023-04-08T01:19:30.214Z,5.38
2023-04-08T01:22:01.674Z,5.36
2023-04-08T01:24:33.153Z,5.35
2023-04-08T01:27:04.622Z,5.38
2023-04-08T01:29:36.107Z,5.37
2023-04-08T01:32:07.581Z,5.41
2023-04-08T01:34:39.358Z,5.38
2023-04-08T01:37:10.841Z,5.39
2023-04-08T01:39:42.618Z,5.40
2023-04-08T01:42:14.102Z,5.33
2023-04-08T01:44:45.905Z,5.31
2023-04-08T01:47:17.357Z,5.31
2023-04-08T01:49:49.151Z,5.36
2023-04-08T01:52:20.606Z,5.37
2023-04-08T01:54:52.404Z,5.36
2023-04-08T01:57:23.895Z,5.33
2023-04-08T01:59:55.714Z,5.38
2023-04-08T02:02:27.232Z,5.40
2023-04-08T02:04:58.765Z,5.38
2023-04-08T02:07:30.231Z,5.37
2023-04-08T02:10:02.019Z,5.35
2023-04-08T02:12:33.494Z,5.36
2023-04-08T02:15:04.956Z,5.35
2023-04-08T02:17:36.456Z,5.33
2023-04-08T02:20:08.316Z,5.38
2023-04-08T02:22:39.810Z,5.34
2023-04-08T02:25:11.251Z,5.30
2023-04-08T02:27:42.711Z,5.34
2023-04-08T02:30:14.520Z,5.38
2023-04-08T02:32:46.030Z,5.31
2023-04-08T02:35:17.844Z,5.33
2023-04-08T02:37:49.334Z,5.32
2023-04-08T02:40:21.032Z,5.25
2023-04-08T02:42:52.488Z,5.27
2023-04-08T02:45:23.994Z,5.33
2023-04-08T02:47:55.526Z,5.32
2023-04-08T02:50:27.391Z,5.24
2023-04-08T02:52:58.849Z,5.26
2023-04-08T02:55:30.324Z,5.29
2023-04-08T02:58:01.769Z,5.27
2023-04-08T03:00:33.240Z,5.22
2023-04-08T03:03:04.937Z,5.33
2023-04-08T03:05:36.810Z,5.29
2023-04-08T03:08:08.337Z,5.37
2023-04-08T03:10:40.110Z,5.33
2023-04-08T03:13:11.603Z,5.39
2023-04-08T03:15:44.790Z,5.33
2023-04-08T03:18:16.251Z,5.40
2023-04-08T03:20:48.014Z,5.40
2023-04-08T03:23:19.477Z,5.42
2023-04-08T03:25:51.231Z,5.38
2023-04-08T03:28:22.682Z,5.40
2023-04-08T03:30:54.216Z,5.28
2023-04-08T03:33:25.686Z,5.27
2023-04-08T03:35:57.539Z,5.31
2023-04-08T03:38:29.015Z,5.38
2023-04-08T03:41:00.472Z,5.37
2023-04-08T03:43:31.933Z,5.38
2023-04-08T03:46:03.457Z,5.41
2023-04-08T03:48:35.985Z,5.34
2023-04-08T03:51:07.438Z,5.39
2023-04-08T03:53:39.204Z,5.38
2023-04-08T03:56:10.638Z,5.40
2023-04-08T03:58:42.430Z,5.43
2023-04-08T04:01:13.910Z,5.41
2023-04-08T04:03:45.441Z,5.42
2023-04-08T04:06:17.017Z,5.41
2023-04-08T04:08:48.881Z,5.41
2023-04-08T04:11:20.515Z,5.44
2023-04-08T04:13:51.996Z,5.42
2023-04-08T04:16:23.561Z,5.44
2023-04-08T04:18:55.444Z,5.41
2023-04-08T04:21:26.905Z,5.43
2023-04-08T04:23:58.359Z,5.44
2023-04-08T04:26:29.918Z,5.46
2023-04-08T04:29:01.695Z,5.48
2023-04-08T04:31:33.165Z,5.49
2023-04-08T04:34:04.971Z,5.48
2023-04-08T04:36:36.443Z,5.53
2023-04-08T04:39:08.299Z,5.55
2023-04-08T04:41:39.737Z,5.56
2023-04-08T04:44:11.479Z,5.56
2023-04-08T04:46:43.162Z,5.56
2023-04-08T04:49:14.921Z,5.59
2023-04-08T04:51:46.371Z,5.59
2023-04-08T04:54:18.116Z,5.64
2023-04-08T04:56:49.577Z,5.68
2023-04-08T04:59:21.332Z,5.65
2023-04-08T05:01:52.873Z,5.67
2023-04-08T05:04:24.707Z,5.71
2023-04-08T05:06:56.155Z,5.73
2023-04-08T05:09:27.626Z,5.75
2023-04-08T05:11:59.068Z,5.77
2023-04-08T05:14:30.528Z,5.81
2023-04-08T05:17:01.977Z,5.74
2023-04-08T05:19:33.456Z,5.80
2023-04-08T05:22:04.914Z,5.84
2023-04-08T05:24:36.697Z,5.81
2023-04-08T05:27:08.187Z,5.87
2023-04-08T05:29:39.985Z,5.86
2023-04-08T05:32:11.428Z,5.83
2023-04-08T05:34:43.202Z,5.85
2023-04-08T05:37:14.644Z,5.86
2023-04-08T05:39:46.468Z,5.91
2023-04-08T05:42:17.923Z,5.96
2023-04-08T05:44:49.731Z,6.07
2023-04-08T05:47:21.242Z,6.03
2023-04-08T05:49:52.895Z,6.14
2023-04-08T05:52:24.350Z,6.23
2023-04-08T05:54:55.834Z,6.25
2023-04-08T05:57:27.262Z,6.32
2023-04-08T05:59:58.905Z,6.46
2023-04-08T06:02:30.514Z,6.48
2023-04-08T06:05:02.182Z,6.42
2023-04-08T06:07:33.648Z,6.55
2023-04-08T06:10:05.278Z,6.66
2023-04-08T06:12:45.570Z,6.66
2023-04-08T06:15:17.372Z,6.87
2023-04-08T06:17:48.800Z,6.88
2023-04-08T06:20:20.667Z,7.02
2023-04-08T06:22:52.115Z,6.97
2023-04-08T06:25:23.819Z,7.19
2023-04-08T06:27:55.271Z,7.32
2023-04-08T06:30:26.903Z,7.49
2023-04-08T06:32:58.438Z,7.45
2023-04-08T06:35:29.940Z,7.59
2023-04-08T06:38:01.451Z,7.69
2023-04-08T06:40:32.959Z,7.85
2023-04-08T06:43:04.418Z,7.84
2023-04-08T06:45:35.961Z,8.10
2023-04-08T06:48:07.506Z,8.22
2023-04-08T06:50:39.430Z,7.96
2023-04-08T06:53:10.891Z,7.93
2023-04-08T06:55:42.371Z,7.96
2023-04-08T06:58:13.843Z,6.47
2023-04-08T07:00:45.328Z,7.96
2023-04-08T07:03:16.931Z,8.19
2023-04-08T07:05:48.928Z,8.42
2023-04-08T07:08:20.370Z,8.66
2023-04-08T07:10:52.196Z,8.66
2023-04-08T07:13:23.681Z,8.74
2023-04-08T07:15:55.528Z,8.59
2023-04-08T07:18:27.079Z,9.06
2023-04-08T07:20:58.530Z,9.29
2023-04-08T07:23:30.006Z,9.65
2023-04-08T07:26:01.838Z,9.50
2023-04-08T07:28:33.331Z,9.16
2023-04-08T07:31:05.487Z,9.20
2023-04-08T07:33:37.029Z,9.32
2023-04-08T07:36:08.771Z,9.26
2023-04-08T07:38:40.271Z,9.50
2023-04-08T07:41:11.762Z,9.81
2023-04-08T07:43:43.233Z,9.63
2023-04-08T07:46:14.854Z,9.72
2023-04-08T07:48:46.376Z,9.66
2023-04-08T07:51:17.891Z,9.38
2023-04-08T07:53:52.697Z,9.27
2023-04-08T07:56:24.217Z,9.19
2023-04-08T07:58:56.437Z,9.09
2023-04-08T08:01:28.042Z,9.22
2023-04-08T08:03:59.789Z,9.28
2023-04-08T08:06:31.375Z,9.15
2023-04-08T08:09:03.279Z,9.02
2023-04-08T08:11:34.768Z,9.02
2023-04-08T08:14:06.487Z,9.14
2023-04-08T08:16:37.937Z,9.71
2023-04-08T08:19:09.857Z,9.76
2023-04-08T08:21:41.352Z,9.76
2023-04-08T08:24:13.145Z,9.74
2023-04-08T08:26:44.613Z,9.60
2023-04-08T08:29:16.377Z,9.76
2023-04-08T08:31:47.834Z,10.17
2023-04-08T08:34:19.325Z,10.65
2023-04-08T08:36:50.782Z,10.80
2023-04-08T08:39:23.151Z,10.51
2023-04-08T08:41:54.609Z,10.39
2023-04-08T08:44:26.392Z,10.25
2023-04-08T08:46:57.949Z,9.94
2023-04-08T08:49:29.513Z,9.67
2023-04-08T08:52:01.073Z,9.81
2023-04-08T08:54:32.653Z,9.59
2023-04-08T08:57:04.094Z,9.68
2023-04-08T08:59:35.561Z,9.62
2023-04-08T09:02:07.154Z,9.73
2023-04-08T09:04:39.077Z,10.06
2023-04-08T09:07:10.659Z,10.38
2023-04-08T09:09:42.398Z,10.46
2023-04-08T09:12:13.840Z,11.02
2023-04-08T09:14:45.654Z,11.63
2023-04-08T09:17:17.115Z,11.72
2023-04-08T09:19:48.943Z,11.19
2023-04-08T09:22:20.387Z,10.61
2023-04-08T09:24:51.997Z,9.82
2023-04-08T09:27:23.454Z,9.59
2023-04-08T09:29:55.271Z,9.56
2023-04-08T09:32:26.763Z,9.35
2023-04-08T09:34:58.322Z,9.51
2023-04-08T09:37:29.901Z,9.69
2023-04-08T09:40:01.342Z,9.89
2023-04-08T09:42:32.821Z,9.98
2023-04-08T09:45:04.283Z,10.32
2023-04-08T09:47:35.979Z,11.02
2023-04-08T09:50:07.858Z,11.18
2023-04-08T09:52:39.310Z,10.95
2023-04-08T09:55:11.237Z,11.14
2023-04-08T09:57:42.678Z,11.53
2023-04-08T10:00:14.487Z,11.43
2023-04-08T10:02:46.125Z,11.56
2023-04-08T10:05:18.065Z,11.77
2023-04-08T10:07:49.552Z,12.12
2023-04-08T10:10:21.326Z,12.25
2023-04-08T10:12:52.829Z,12.38
2023-04-08T10:15:24.308Z,12.41
2023-04-08T10:17:55.775Z,12.79
2023-04-08T10:20:27.624Z,12.65
2023-04-08T10:22:59.092Z,12.56
2023-04-08T10:25:30.580Z,12.15
2023-04-08T10:28:02.065Z,11.82
2023-04-08T10:30:33.546Z,11.49
2023-04-08T10:33:05.044Z,11.51
2023-04-08T10:35:37.023Z,11.22
2023-04-08T10:38:08.564Z,11.03
2023-04-08T10:40:40.323Z,11.19
2023-04-08T10:43:11.770Z,11.67
2023-04-08T10:45:44.338Z,12.04
2023-04-08T10:48:16.710Z,12.21
2023-04-08T10:50:48.669Z,12.52
2023-04-08T10:53:20.143Z,12.93
2023-04-08T10:55:51.926Z,14.08
2023-04-08T10:58:23.947Z,14.19
2023-04-08T11:00:55.426Z,13.84
2023-04-08T11:03:27.494Z,13.55
2023-04-08T11:05:59.175Z,13.01
2023-04-08T11:08:30.683Z,12.80
2023-04-08T11:11:02.146Z,12.72
2023-04-08T11:13:33.682Z,12.66
2023-04-08T11:18:39.582Z,12.07
2023-04-08T11:21:11.058Z,11.69
2023-04-08T11:23:42.861Z,11.67
2023-04-08T11:26:14.340Z,12.33
2023-04-08T11:28:45.971Z,12.56
2023-04-08T11:31:17.488Z,12.56
2023-04-08T11:33:49.479Z,12.86
2023-04-08T11:36:21.090Z,13.00
2023-04-08T11:38:52.549Z,13.05
2023-04-08T11:41:24.013Z,13.27
2023-04-08T11:43:55.661Z,12.98
2023-04-08T11:46:27.307Z,13.22
2023-04-08T11:48:59.221Z,13.72
2023-04-08T11:51:30.666Z,14.37
2023-04-08T11:54:02.183Z,15.38
2023-04-08T11:56:33.670Z,14.63
2023-04-08T11:59:05.159Z,14.09
2023-04-08T12:01:36.663Z,13.91
2023-04-08T12:04:08.354Z,13.39
2023-04-08T12:06:39.963Z,13.11
2023-04-08T12:09:11.808Z,13.32
2023-04-08T12:11:43.262Z,13.10
2023-04-08T12:14:14.770Z,13.08
2023-04-08T12:16:46.248Z,13.28
2023-04-08T12:19:17.745Z,13.32
2023-04-08T12:21:49.224Z,13.12
2023-04-08T12:24:20.694Z,12.79
2023-04-08T12:26:52.141Z,13.01
2023-04-08T12:29:23.999Z,13.28
2023-04-08T12:31:55.559Z,13.01
2023-04-08T12:34:27.373Z,12.84
2023-04-08T12:36:58.842Z,14.88
2023-04-08T12:39:30.371Z,15.84
2023-04-08T12:44:34.293Z,16.16
2023-04-08T12:47:05.813Z,15.44
2023-04-08T12:49:48.680Z,14.45
2023-04-08T12:52:21.055Z,14.23
2023-04-08T12:54:52.898Z,13.87
2023-04-08T12:57:24.348Z,14.31
2023-04-08T12:59:56.207Z,14.79
2023-04-08T13:02:27.967Z,15.80
2023-04-08T13:04:59.521Z,15.88
2023-04-08T13:07:30.967Z,15.76
2023-04-08T13:10:02.741Z,16.03
2023-04-08T13:12:34.202Z,16.53
2023-04-08T13:15:05.654Z,16.86
2023-04-08T13:17:37.454Z,17.41
2023-04-08T13:20:08.949Z,17.52
2023-04-08T13:22:40.756Z,17.61
2023-04-08T13:25:12.217Z,18.22
2023-04-08T13:27:45.730Z,18.42
2023-04-08T13:30:17.313Z,18.21
2023-04-08T13:32:49.090Z,18.53
2023-04-08T13:35:20.608Z,17.94
2023-04-08T13:37:52.413Z,17.66
2023-04-08T13:40:23.869Z,18.09
2023-04-08T13:42:55.707Z,18.50
2023-04-08T13:45:27.141Z,17.11
2023-04-08T13:47:58.608Z,17.50
2023-04-08T13:50:30.066Z,16.55
2023-04-08T13:53:01.867Z,16.14
2023-04-08T13:55:33.323Z,17.08
2023-04-08T13:58:11.216Z,17.13
2023-04-08T14:00:48.887Z,16.61
2023-04-08T14:03:20.385Z,16.14
2023-04-08T14:05:51.870Z,15.43
2023-04-08T14:08:23.351Z,15.61
2023-04-08T14:10:54.825Z,15.48
2023-04-08T14:13:26.711Z,16.23
2023-04-08T14:15:58.223Z,15.62
2023-04-08T14:18:29.724Z,16.52
2023-04-08T14:21:01.181Z,17.54
2023-04-08T14:23:32.662Z,17.34
2023-04-08T14:26:04.117Z,18.29
2023-04-08T14:28:35.655Z,18.35
2023-04-08T14:31:07.170Z,18.84
2023-04-08T14:33:39.049Z,18.76
2023-04-08T14:36:10.566Z,17.88
2023-04-08T14:38:42.390Z,18.21
2023-04-08T14:41:13.844Z,17.39
2023-04-08T14:43:45.302Z,17.39
2023-04-08T14:46:16.824Z,17.25
2023-04-08T14:48:48.724Z,16.33
2023-04-08T14:51:20.229Z,17.86
2023-04-08T14:53:51.922Z,17.53
2023-04-08T14:56:23.425Z,15.77
2023-04-08T14:58:55.076Z,15.53
2023-04-08T15:01:26.578Z,15.49
2023-04-08T15:03:58.192Z,15.10
2023-04-08T15:06:29.742Z,16.48
2023-04-08T15:09:01.627Z,17.21
2023-04-08T15:11:33.105Z,17.52
2023-04-08T15:14:04.921Z,17.71
2023-04-08T15:16:36.424Z,18.21
2023-04-08T15:19:08.183Z,18.27
2023-04-08T15:21:39.666Z,18.55
2023-04-08T15:24:11.137Z,17.39
2023-04-08T15:26:42.595Z,17.38
2023-04-08T15:29:14.341Z,17.23
2023-04-08T15:31:45.808Z,16.79
2023-04-08T15:34:17.678Z,17.21
2023-04-08T15:36:49.152Z,16.39
2023-04-08T15:39:20.939Z,16.07
2023-04-08T15:41:52.407Z,15.60
2023-04-08T15:44:24.212Z,14.93
2023-04-08T15:46:55.711Z,14.67
2023-04-08T15:49:27.560Z,14.20
2023-04-08T15:51:59.023Z,14.05
2023-04-08T15:54:31.010Z,13.86
2023-04-08T15:57:02.711Z,13.69
2023-04-08T15:59:34.197Z,13.32
2023-04-08T16:02:05.831Z,13.36
2023-04-08T16:04:37.464Z,13.52
2023-04-08T16:07:08.982Z,13.44
2023-04-08T16:09:40.636Z,13.38
2023-04-08T16:12:12.073Z,13.49
2023-04-08T16:14:43.895Z,13.59
2023-04-08T16:17:15.378Z,13.59
2023-04-08T16:19:47.220Z,13.23
2023-04-08T16:22:18.923Z,13.40
2023-04-08T16:24:50.762Z,13.33
2023-04-08T16:27:22.271Z,13.05
2023-04-08T16:29:54.095Z,13.04
2023-04-08T16:32:25.592Z,12.89
2023-04-08T16:34:57.411Z,12.71
2023-04-08T16:37:28.884Z,12.65
2023-04-08T16:40:00.733Z,12.11
2023-04-08T16:42:32.219Z,11.67
2023-04-08T16:45:03.696Z,11.40
2023-04-08T16:47:35.151Z,10.95
2023-04-08T16:50:07.224Z,10.75
2023-04-08T16:52:38.706Z,9.43
2023-04-08T16:55:11.267Z,10.36
2023-04-08T16:57:43.834Z,10.07
2023-04-08T17:00:16.038Z,9.88
2023-04-08T17:02:48.530Z,9.87
2023-04-08T17:05:20.457Z,9.75
2023-04-08T17:07:51.895Z,9.70
2023-04-08T17:10:23.682Z,9.51
2023-04-08T17:12:55.154Z,9.50
2023-04-08T17:15:26.589Z,9.17
2023-04-08T17:17:58.081Z,9.13
2023-04-08T17:20:29.603Z,9.18
2023-04-08T17:23:01.098Z,9.01
2023-04-08T17:25:32.646Z,8.98
2023-04-08T17:28:04.420Z,8.82
2023-04-08T17:30:35.938Z,8.73
2023-04-08T17:33:07.672Z,8.77
2023-04-08T17:35:39.133Z,8.69
2023-04-08T17:38:10.773Z,8.53
2023-04-08T17:40:42.211Z,8.49
2023-04-08T17:43:13.966Z,8.44
2023-04-08T17:45:45.463Z,8.25
2023-04-08T17:48:17.265Z,8.19
2023-04-08T17:50:48.720Z,8.17
2023-04-08T17:53:20.475Z,8.16
2023-04-08T17:55:51.935Z,8.14
2023-04-08T17:58:23.747Z,7.90
2023-04-08T18:00:55.209Z,7.87
2023-04-08T18:03:26.820Z,7.70
2023-04-08T18:05:58.322Z,7.70
2023-04-08T18:08:29.775Z,7.72
2023-04-08T18:11:01.234Z,7.61
2023-04-08T18:13:32.702Z,7.68
2023-04-08T18:16:04.141Z,7.53
2023-04-08T18:18:35.592Z,7.51
2023-04-08T18:21:07.045Z,7.45
2023-04-08T18:23:38.610Z,7.51
2023-04-08T18:26:10.062Z,7.49
2023-04-08T18:28:41.734Z,7.48
2023-04-08T18:31:13.246Z,7.54
2023-04-08T18:33:45.205Z,7.65
2023-04-08T18:36:16.688Z,7.59
2023-04-08T18:38:48.661Z,7.67
2023-04-08T18:41:20.107Z,7.65
2023-04-08T18:43:51.871Z,7.69
2023-04-08T18:46:23.734Z,7.74
2023-04-08T18:48:55.284Z,7.77
2023-04-08T18:51:26.798Z,7.78
2023-04-08T18:53:58.307Z,7.70
2023-04-08T18:56:29.784Z,7.73
2023-04-08T18:59:01.585Z,7.73
2023-04-08T19:01:33.170Z,7.79
2023-04-08T19:04:05.214Z,7.85
2023-04-08T19:06:36.852Z,7.90
2023-04-08T19:09:08.621Z,7.96
2023-04-08T19:11:40.087Z,7.92
2023-04-08T19:14:11.887Z,7.91
2023-04-08T19:16:43.428Z,7.95
2023-04-08T19:19:15.200Z,7.87
2023-04-08T19:21:46.663Z,7.86
2023-04-08T19:24:18.243Z,7.77
2023-04-08T19:26:49.733Z,7.90
2023-04-08T19:29:21.541Z,7.82
2023-04-08T19:31:53.118Z,7.87
2023-04-08T19:34:24.868Z,7.91
2023-04-08T19:36:56.346Z,7.91
2023-04-08T19:39:28.946Z,7.89
2023-04-08T19:42:00.480Z,7.84
2023-04-08T19:44:32.052Z,7.81
2023-04-08T19:47:03.594Z,7.75
2023-04-08T19:49:35.087Z,7.73
2023-04-08T19:52:06.574Z,7.77
2023-04-08T19:54:38.028Z,7.74
2023-04-08T19:57:09.665Z,7.78
2023-04-08T19:59:41.179Z,7.82
2023-04-08T20:02:12.775Z,7.76
2023-04-08T20:04:44.395Z,7.72
2023-04-08T20:07:15.960Z,7.72
2023-04-08T20:09:47.425Z,7.70
2023-04-08T20:12:19.117Z,7.69
2023-04-08T20:14:50.638Z,7.67
2023-04-08T20:17:22.414Z,7.59
2023-04-08T20:19:53.917Z,7.62
2023-04-08T20:22:25.726Z,7.65
2023-04-08T20:24:57.217Z,7.71
2023-04-08T20:27:28.825Z,7.58
2023-04-08T20:30:00.314Z,7.50
2023-04-08T20:32:31.939Z,7.53
2023-04-08T20:35:03.432Z,7.46
2023-04-08T20:37:34.910Z,7.59
2023-04-08T20:40:06.412Z,7.59
2023-04-08T20:42:37.891Z,7.62
2023-04-08T20:45:09.342Z,7.59
2023-04-08T20:47:41.250Z,6.85
2023-04-08T20:50:12.706Z,7.58
2023-04-08T20:52:44.201Z,7.60
2023-04-08T20:55:15.716Z,7.63
2023-04-08T20:57:47.614Z,7.67
2023-04-08T21:00:19.093Z,7.40
2023-04-08T21:02:51.004Z,7.67
2023-04-08T21:05:22.601Z,7.65
2023-04-08T21:07:54.414Z,7.65
2023-04-08T21:10:25.910Z,7.62
2023-04-08T21:12:57.484Z,7.67
2023-04-08T21:15:29.044Z,7.70
2023-04-08T21:18:00.850Z,7.74
2023-04-08T21:20:32.333Z,7.69
2023-04-08T21:23:04.178Z,7.69
2023-04-08T21:25:35.633Z,7.72
2023-04-08T21:28:07.458Z,7.74
2023-04-08T21:30:39.042Z,7.76
2023-04-08T21:33:10.908Z,7.69
2023-04-08T21:35:42.433Z,7.69
2023-04-08T21:38:13.921Z,7.66
2023-04-08T21:40:45.381Z,7.63
2023-04-08T21:43:16.894Z,7.57
2023-04-08T21:45:48.389Z,7.52
2023-04-08T21:48:20.178Z,7.45
2023-04-08T21:50:51.629Z,7.33
2023-04-08T21:53:23.100Z,7.20
2023-04-08T21:55:54.581Z,7.15
2023-04-08T21:58:26.210Z,7.11
2023-04-08T22:00:57.689Z,7.04
2023-04-08T22:03:29.238Z,7.00
2023-04-08T22:06:00.787Z,6.95
2023-04-08T22:08:32.312Z,6.90
2023-04-08T22:13:35.232Z,6.79
2023-04-08T22:16:06.687Z,6.76
2023-04-08T22:18:38.527Z,6.69
2023-04-08T22:21:09.976Z,6.62
2023-04-08T22:23:41.847Z,6.54
2023-04-08T22:26:15.174Z,6.47
2023-04-08T22:28:47.584Z,6.40
2023-04-08T22:31:19.566Z,6.32
2023-04-08T22:33:51.159Z,6.27
2023-04-08T22:36:22.620Z,6.20
2023-04-08T22:38:54.280Z,6.11
2023-04-08T22:41:26.084Z,6.04
2023-04-08T22:43:57.555Z,5.98
2023-04-08T22:46:29.152Z,5.93
2023-04-08T22:49:00.610Z,5.87
2023-04-08T22:51:32.090Z,5.81
2023-04-08T22:54:03.542Z,5.67
2023-04-08T22:56:34.998Z,5.57
2023-04-08T22:59:06.448Z,5.52
2023-04-08T23:01:38.124Z,5.44
2023-04-08T23:04:09.706Z,5.39
2023-04-08T23:06:41.574Z,5.35
2023-04-08T23:09:13.054Z,5.26
2023-04-08T23:11:44.871Z,5.20
2023-04-08T23:14:16.333Z,5.19
2023-04-08T23:16:48.248Z,5.19
2023-04-08T23:19:19.708Z,5.17
2023-04-08T23:21:51.430Z,5.07
2023-04-08T23:24:22.904Z,5.00
2023-04-08T23:26:54.712Z,4.94
2023-04-08T23:29:26.175Z,4.86
2023-04-08T23:31:57.971Z,4.83
2023-04-08T23:34:29.430Z,4.82
2023-04-08T23:37:00.896Z,4.80
2023-04-08T23:39:32.369Z,4.75
2023-04-08T23:42:04.125Z,4.67
2023-04-08T23:44:35.586Z,4.59
2023-04-08T23:47:07.327Z,4.52
2023-04-08T23:49:38.782Z,4.47
2023-04-08T23:52:10.623Z,4.35
2023-04-08T23:54:42.102Z,4.30
2023-04-08T23:57:13.889Z,4.26
2023-04-08T23:59:45.341Z,4.14
